Time;durP1;ratioP1;P1;durP2;ratioP2;P2;SDS_P1;SDS_P2;PMS_P1;PMS_P2;Temp;Humidity;BMP_temperature;BMP_pressure;BME280_temperature;BME280_humidity;BME280_pressure;Samples;Min_cycle;Max_cycle;Signal;HPM_P1;HPM_P2
2021/06/11 00:00:24;;;;;;;6.30;5.60;;;;;;;;;;5116433;27;20489;-68
2021/06/11 00:02:51;;;;;;;6.30;5.47;;;;;;;;;;5116045;27;20495;-70
2021/06/11 00:05:20;;;;;;;5.83;4.97;;;;;;;;;;5116638;27;20450;-70
2021/06/11 00:07:47;;;;;;;7.17;5.30;;;;;;;;;;5116968;27;20747;-70
2021/06/11 00:10:15;;;;;;;5.70;4.63;;;;;;;;;;5116747;27;20458;-70
2021/06/11 00:12:44;;;;;;;7.87;4.90;;;;;;;;;;5110288;27;20541;-70
2021/06/11 00:15:13;;;;;;;5.83;4.73;;;;;;;;;;5115821;27;20882;-70
2021/06/11 00:17:48;;;;;;;6.03;5.10;;;;;;;;;;5117230;27;20592;-69
2021/06/11 00:20:16;;;;;;;6.23;4.93;;;;;;;;;;5120220;27;20475;-69
2021/06/11 00:22:43;;;;;;;6.10;5.10;;;;;;;;;;5121117;27;20477;-69
2021/06/11 00:25:12;;;;;;;6.10;5.03;;;;;;;;;;5120586;27;20904;-69
2021/06/11 00:27:40;;;;;;;5.17;4.67;;;;;;;;;;5119743;27;20463;-70
2021/06/11 00:30:08;;;;;;;8.33;5.43;;;;;;;;;;5121169;27;20855;-70
2021/06/11 00:32:36;;;;;;;7.03;5.60;;;;;;;;;;5119451;27;20941;-69
2021/06/11 00:35:05;;;;;;;5.77;5.07;;;;;;;;;;5120931;27;20482;-69
2021/06/11 00:37:33;;;;;;;6.63;5.93;;;;;;;;;;5121113;27;20542;-70
2021/06/11 00:40:10;;;;;;;6.73;5.10;;;;;;;;;;5121016;27;20716;-70
2021/06/11 00:42:38;;;;;;;6.13;5.23;;;;;;;;;;5119304;27;20454;-69
2021/06/11 00:45:07;;;;;;;8.27;5.50;;;;;;;;;;5120886;27;20453;-69
2021/06/11 00:47:34;;;;;;;9.17;5.20;;;;;;;;;;5121133;27;20750;-69
2021/06/11 00:50:02;;;;;;;7.63;5.97;;;;;;;;;;5120988;27;20809;-69
2021/06/11 00:52:33;;;;;;;6.77;5.60;;;;;;;;;;5121184;27;20578;-69
2021/06/11 00:55:02;;;;;;;7.80;5.57;;;;;;;;;;5121005;27;20490;-69
2021/06/11 00:57:29;;;;;;;7.87;5.50;;;;;;;;;;5120273;27;21086;-69
2021/06/11 00:59:57;;;;;;;6.23;5.60;;;;;;;;;;5120536;27;20839;-69
2021/06/11 01:02:24;;;;;;;7.03;6.33;;;;;;;;;;5119678;27;20459;-69
2021/06/11 01:04:52;;;;;;;6.43;5.83;;;;;;;;;;5120749;27;20458;-70
2021/06/11 01:07:19;;;;;;;6.90;6.00;;;;;;;;;;5120747;27;20472;-70
2021/06/11 01:09:49;;;;;;;6.27;5.17;;;;;;;;;;5120348;27;20451;-69
2021/06/11 01:12:16;;;;;;;9.07;6.30;;;;;;;;;;5118067;27;20798;-69
2021/06/11 01:14:47;;;;;;;10.03;7.23;;;;;;;;;;5118679;27;20493;-71
2021/06/11 01:17:14;;;;;;;7.43;5.80;;;;;;;;;;5115480;27;21096;-69
2021/06/11 01:19:44;;;;;;;7.70;6.63;;;;;;;;;;5120506;27;20454;-69
2021/06/11 01:22:14;;;;;;;6.67;5.83;;;;;;;;;;5120318;27;20846;-69
2021/06/11 01:24:48;;;;;;;7.73;5.97;;;;;;;;;;5114064;28;20995;-69
2021/06/11 01:27:17;;;;;;;6.63;4.90;;;;;;;;;;5119359;27;20454;-69
2021/06/11 01:29:49;;;;;;;8.23;5.50;;;;;;;;;;5117844;27;20461;-69
2021/06/11 01:32:17;;;;;;;7.23;6.40;;;;;;;;;;5118569;27;20538;-69
2021/06/11 01:34:44;;;;;;;6.50;5.90;;;;;;;;;;5119239;27;20510;-69
2021/06/11 01:37:15;;;;;;;6.90;6.10;;;;;;;;;;5119117;27;20524;-69
2021/06/11 01:39:44;;;;;;;6.77;6.00;;;;;;;;;;5119733;27;20451;-69
2021/06/11 01:42:12;;;;;;;8.77;6.60;;;;;;;;;;5118579;27;20474;-69
2021/06/11 01:44:42;;;;;;;7.77;6.60;;;;;;;;;;5119463;27;20473;-69
2021/06/11 01:47:10;;;;;;;7.90;6.73;;;;;;;;;;5119704;27;20543;-69
2021/06/11 01:49:37;;;;;;;8.77;7.60;;;;;;;;;;5120111;27;20450;-68
2021/06/11 01:52:07;;;;;;;8.53;6.50;;;;;;;;;;5120321;27;20889;-70
2021/06/11 01:54:34;;;;;;;8.37;7.47;;;;;;;;;;5119458;27;20972;-69
2021/06/11 01:57:02;;;;;;;7.63;6.10;;;;;;;;;;5118793;27;21031;-69
2021/06/11 01:59:30;;;;;;;7.03;6.33;;;;;;;;;;5119390;27;20498;-69
2021/06/11 02:01:59;;;;;;;8.93;7.40;;;;;;;;;;5118695;27;20463;-69
2021/06/11 02:04:27;;;;;;;8.00;6.30;;;;;;;;;;5107166;27;20506;-70
2021/06/11 02:06:55;;;;;;;10.53;7.60;;;;;;;;;;5118577;27;20501;-69
2021/06/11 02:09:23;;;;;;;8.30;6.60;;;;;;;;;;5118805;27;20458;-69
2021/06/11 02:11:51;;;;;;;7.10;6.40;;;;;;;;;;5118445;27;20523;-69
2021/06/11 02:14:21;;;;;;;7.87;7.07;;;;;;;;;;5118281;27;20981;-69
2021/06/11 02:16:50;;;;;;;8.27;6.63;;;;;;;;;;5117913;27;20458;-69
2021/06/11 02:19:21;;;;;;;7.23;6.47;;;;;;;;;;5118901;27;20447;-70
2021/06/11 02:21:48;;;;;;;10.40;7.50;;;;;;;;;;5118549;27;20451;-69
2021/06/11 02:24:19;;;;;;;8.10;6.80;;;;;;;;;;5118519;27;20477;-69
2021/06/11 02:26:47;;;;;;;9.23;6.70;;;;;;;;;;5117896;27;20466;-69
2021/06/11 02:29:15;;;;;;;6.43;5.77;;;;;;;;;;5118224;27;20471;-69
2021/06/11 02:31:43;;;;;;;8.53;6.73;;;;;;;;;;5117801;27;20828;-69
2021/06/11 02:34:12;;;;;;;6.90;6.03;;;;;;;;;;5117870;27;20543;-69
2021/06/11 02:36:40;;;;;;;8.97;6.57;;;;;;;;;;5118296;27;20974;-69
2021/06/11 02:39:08;;;;;;;8.67;6.50;;;;;;;;;;5117880;27;20455;-69
2021/06/11 02:41:39;;;;;;;8.03;6.80;;;;;;;;;;5118235;27;20458;-69
2021/06/11 02:44:08;;;;;;;7.37;6.67;;;;;;;;;;5118412;27;20477;-70
2021/06/11 02:46:39;;;;;;;8.60;6.03;;;;;;;;;;5118581;27;21038;-70
2021/06/11 02:49:09;;;;;;;7.40;5.63;;;;;;;;;;5118664;27;20455;-69
2021/06/11 02:51:39;;;;;;;10.70;6.63;;;;;;;;;;5117932;27;20458;-71
2021/06/11 02:54:13;;;;;;;7.50;6.20;;;;;;;;;;5104801;28;20483;-69
2021/06/11 02:56:43;;;;;;;8.17;6.07;;;;;;;;;;5097798;28;20459;-69
2021/06/11 02:59:14;;;;;;;7.27;6.20;;;;;;;;;;5099202;28;20466;-70
2021/06/11 03:01:45;;;;;;;7.27;6.43;;;;;;;;;;5109741;28;20457;-69
2021/06/11 03:04:13;;;;;;;6.83;5.83;;;;;;;;;;5117956;27;20486;-70
2021/06/11 03:06:40;;;;;;;7.37;5.70;;;;;;;;;;5117760;27;20878;-69
2021/06/11 03:09:10;;;;;;;6.73;6.03;;;;;;;;;;5117750;27;20449;-69
2021/06/11 03:11:40;;;;;;;7.63;6.83;;;;;;;;;;5118063;27;20487;-69
2021/06/11 03:14:08;;;;;;;7.27;5.73;;;;;;;;;;5118055;27;20580;-69
2021/06/11 03:16:35;;;;;;;7.07;6.37;;;;;;;;;;5118044;27;20532;-69
2021/06/11 03:19:05;;;;;;;7.83;7.00;;;;;;;;;;5117957;27;20486;-69
2021/06/11 03:21:34;;;;;;;7.30;6.43;;;;;;;;;;5117768;27;20526;-69
2021/06/11 03:24:04;;;;;;;7.90;6.27;;;;;;;;;;5117687;27;20838;-69
2021/06/11 03:26:35;;;;;;;8.67;6.97;;;;;;;;;;5117382;27;20455;-69
2021/06/11 03:29:04;;;;;;;9.10;6.60;;;;;;;;;;5117533;27;20450;-69
2021/06/11 03:31:34;;;;;;;7.53;6.33;;;;;;;;;;5117402;27;20728;-69
2021/06/11 03:34:03;;;;;;;7.23;6.07;;;;;;;;;;5117380;27;20898;-69
2021/06/11 03:36:31;;;;;;;7.70;6.07;;;;;;;;;;5115869;27;20486;-69
2021/06/11 03:38:59;;;;;;;7.27;5.90;;;;;;;;;;5116965;27;20482;-69
2021/06/11 03:41:27;;;;;;;8.90;6.73;;;;;;;;;;5116937;27;20458;-70
2021/06/11 03:43:57;;;;;;;8.80;6.60;;;;;;;;;;5116487;27;20462;-70
2021/06/11 03:46:24;;;;;;;8.07;5.87;;;;;;;;;;5116947;27;20455;-69
2021/06/11 03:48:54;;;;;;;6.70;5.83;;;;;;;;;;5115806;27;20442;-70
2021/06/11 03:51:22;;;;;;;7.97;6.43;;;;;;;;;;5116364;27;20447;-69
2021/06/11 03:53:51;;;;;;;7.10;5.43;;;;;;;;;;5117521;27;20581;-70
2021/06/11 03:56:20;;;;;;;6.30;5.70;;;;;;;;;;5117323;27;20739;-70
2021/06/11 03:58:50;;;;;;;6.77;6.07;;;;;;;;;;5117129;27;20474;-69
2021/06/11 04:01:23;;;;;;;6.77;6.07;;;;;;;;;;5117229;27;20446;-71
2021/06/11 04:03:51;;;;;;;6.63;5.77;;;;;;;;;;5117531;27;20750;-70
2021/06/11 04:06:21;;;;;;;7.10;6.40;;;;;;;;;;5116449;27;20509;-70
2021/06/11 04:08:51;;;;;;;6.77;6.07;;;;;;;;;;5117080;27;20560;-69
2021/06/11 04:11:21;;;;;;;9.30;6.00;;;;;;;;;;5115678;27;20563;-70
2021/06/11 04:13:50;;;;;;;8.17;6.60;;;;;;;;;;5116580;27;20546;-69
2021/06/11 04:16:23;;;;;;;7.90;7.10;;;;;;;;;;5116319;27;20493;-70
2021/06/11 04:18:51;;;;;;;7.33;6.20;;;;;;;;;;5102364;27;20728;-70
2021/06/11 04:21:21;;;;;;;9.97;7.40;;;;;;;;;;5114634;27;20454;-70
2021/06/11 04:23:49;;;;;;;7.20;6.10;;;;;;;;;;5115931;27;20494;-70
2021/06/11 04:26:17;;;;;;;7.60;6.83;;;;;;;;;;5115251;27;20450;-70
2021/06/11 04:28:45;;;;;;;8.73;7.33;;;;;;;;;;5116243;27;20523;-69
2021/06/11 04:31:12;;;;;;;6.90;6.20;;;;;;;;;;5116261;27;20451;-69
2021/06/11 04:33:41;;;;;;;7.73;6.40;;;;;;;;;;5115774;27;20589;-70
2021/06/11 04:36:09;;;;;;;7.40;6.30;;;;;;;;;;5114788;27;20454;-70
2021/06/11 04:38:43;;;;;;;7.60;6.53;;;;;;;;;;5116699;27;20458;-70
2021/06/11 04:41:11;;;;;;;7.90;7.10;;;;;;;;;;5116464;27;20490;-69
2021/06/11 04:43:38;;;;;;;7.90;7.10;;;;;;;;;;5107177;28;20474;-69
2021/06/11 04:46:05;;;;;;;11.37;8.00;;;;;;;;;;5115912;27;20455;-69
2021/06/11 04:48:33;;;;;;;9.17;7.67;;;;;;;;;;5115598;27;20454;-71
2021/06/11 04:51:01;;;;;;;8.97;7.73;;;;;;;;;;5115719;27;20455;-69
2021/06/11 04:53:29;;;;;;;7.27;6.57;;;;;;;;;;5112670;27;20582;-70
2021/06/11 04:55:57;;;;;;;11.57;6.73;;;;;;;;;;5108080;27;20473;-70
2021/06/11 04:58:26;;;;;;;7.87;6.73;;;;;;;;;;5107762;27;20834;-70
2021/06/11 05:00:54;;;;;;;8.20;6.70;;;;;;;;;;5099929;28;20482;-70
2021/06/11 05:03:21;;;;;;;8.47;7.07;;;;;;;;;;5115889;27;20458;-70
2021/06/11 05:06:23;;;;;;;10.57;7.80;;;;;;;;;;5107567;27;20459;-69
2021/06/11 05:08:52;;;;;;;10.20;7.60;;;;;;;;;;5118323;27;20486;-70
2021/06/11 05:11:19;;;;;;;8.70;7.80;;;;;;;;;;5118750;27;20542;-70
2021/06/11 05:13:46;;;;;;;14.83;10.13;;;;;;;;;;5118002;27;20489;-70
2021/06/11 05:16:13;;;;;;;9.73;8.70;;;;;;;;;;5114025;27;20451;-70
2021/06/11 05:18:41;;;;;;;13.00;9.60;;;;;;;;;;5118947;27;20561;-70
2021/06/11 05:21:08;;;;;;;8.87;7.97;;;;;;;;;;5117526;27;20652;-71
2021/06/11 05:23:36;;;;;;;12.93;8.83;;;;;;;;;;5097727;28;20470;-70
2021/06/11 05:26:05;;;;;;;11.97;10.07;;;;;;;;;;5097424;28;20529;-70
2021/06/11 05:28:32;;;;;;;11.10;9.07;;;;;;;;;;5096952;28;20455;-70
2021/06/11 05:31:00;;;;;;;10.27;8.33;;;;;;;;;;5096646;28;20466;-69
2021/06/11 05:33:27;;;;;;;11.80;8.67;;;;;;;;;;5096705;28;20462;-70
2021/06/11 05:35:57;;;;;;;10.03;8.30;;;;;;;;;;5101832;28;20527;-70
2021/06/11 05:38:24;;;;;;;14.90;8.90;;;;;;;;;;5116347;27;20463;-70
2021/06/11 05:40:52;;;;;;;12.13;9.77;;;;;;;;;;5116281;27;20485;-70
2021/06/11 05:43:20;;;;;;;14.13;11.33;;;;;;;;;;5115882;27;20922;-69
2021/06/11 05:45:48;;;;;;;16.97;11.77;;;;;;;;;;5117622;27;20494;-70
2021/06/11 05:48:16;;;;;;;15.10;12.30;;;;;;;;;;5116770;27;20455;-69
2021/06/11 05:50:44;;;;;;;14.57;11.30;;;;;;;;;;5116417;27;20455;-70
2021/06/11 05:53:12;;;;;;;15.77;11.60;;;;;;;;;;5116291;27;20459;-71
2021/06/11 05:55:39;;;;;;;13.83;11.57;;;;;;;;;;5117522;27;21070;-70
2021/06/11 05:58:09;;;;;;;16.67;12.17;;;;;;;;;;5116526;27;20458;-70
2021/06/11 06:01:07;;;;;;;15.43;12.97;;;;;;;;;;5116313;27;20538;-70
2021/06/11 06:03:36;;;;;;;12.93;10.77;;;;;;;;;;5100112;28;20487;-70
2021/06/11 06:06:03;;;;;;;12.17;10.87;;;;;;;;;;5096740;28;20451;-70
2021/06/11 06:08:30;;;;;;;14.00;11.37;;;;;;;;;;5097157;28;20470;-70
2021/06/11 06:11:01;;;;;;;13.10;10.50;;;;;;;;;;5108014;28;20451;-70
2021/06/11 06:13:28;;;;;;;11.77;10.53;;;;;;;;;;5116350;27;20535;-70
2021/06/11 06:15:56;;;;;;;11.00;9.23;;;;;;;;;;5116164;27;20469;-70
2021/06/11 06:18:23;;;;;;;12.47;9.90;;;;;;;;;;5117034;27;20458;-70
2021/06/11 06:20:52;;;;;;;11.87;8.10;;;;;;;;;;5116565;27;20451;-70
2021/06/11 06:23:19;;;;;;;14.57;8.30;;;;;;;;;;5114685;27;20488;-70
2021/06/11 06:25:47;;;;;;;9.30;8.30;;;;;;;;;;5117124;27;20469;-69
2021/06/11 06:28:14;;;;;;;11.53;8.30;;;;;;;;;;5116679;27;20472;-70
2021/06/11 06:30:43;;;;;;;21.30;12.30;;;;;;;;;;5114348;27;21036;-70
2021/06/11 06:33:10;;;;;;;10.03;9.00;;;;;;;;;;5096935;28;21014;-70
2021/06/11 06:35:38;;;;;;;10.60;9.50;;;;;;;;;;5096093;28;20541;-70
2021/06/11 06:38:08;;;;;;;14.37;10.87;;;;;;;;;;5108633;27;20491;-69
2021/06/11 06:40:36;;;;;;;11.50;9.67;;;;;;;;;;5115065;27;20454;-69
2021/06/11 06:43:04;;;;;;;12.50;9.90;;;;;;;;;;5115727;27;20561;-70
2021/06/11 06:45:31;;;;;;;12.07;10.67;;;;;;;;;;5112489;27;20475;-71
2021/06/11 06:47:59;;;;;;;13.13;10.37;;;;;;;;;;5095381;28;20478;-71
2021/06/11 06:50:27;;;;;;;14.17;11.00;;;;;;;;;;5108430;27;20453;-71
2021/06/11 06:52:55;;;;;;;13.13;11.47;;;;;;;;;;5112095;27;20469;-71
2021/06/11 06:55:24;;;;;;;13.77;10.70;;;;;;;;;;5113848;27;20503;-70
2021/06/11 06:57:51;;;;;;;15.57;11.37;;;;;;;;;;5115687;27;20459;-71
2021/06/11 07:00:19;;;;;;;14.50;10.67;;;;;;;;;;5115356;27;20822;-70
2021/06/11 07:02:48;;;;;;;16.40;11.80;;;;;;;;;;5096821;28;20460;-71
2021/06/11 07:05:15;;;;;;;17.03;11.10;;;;;;;;;;5114013;27;20459;-71
2021/06/11 07:07:47;;;;;;;15.47;10.30;;;;;;;;;;5109497;28;20544;-71
2021/06/11 07:10:15;;;;;;;13.07;10.47;;;;;;;;;;5113435;27;20470;-71
2021/06/11 07:12:44;;;;;;;17.33;10.97;;;;;;;;;;5115329;27;20455;-71
2021/06/11 07:15:14;;;;;;;14.97;10.97;;;;;;;;;;5114944;27;20482;-71
2021/06/11 07:17:43;;;;;;;14.00;10.97;;;;;;;;;;5115684;27;20519;-71
2021/06/11 07:20:11;;;;;;;11.27;9.50;;;;;;;;;;5115425;27;20501;-71
2021/06/11 07:22:39;;;;;;;11.87;9.13;;;;;;;;;;5116417;27;21063;-70
2021/06/11 07:25:10;;;;;;;10.90;9.70;;;;;;;;;;5115817;27;20466;-70
2021/06/11 07:27:41;;;;;;;12.37;8.70;;;;;;;;;;5111549;27;20443;-72
2021/06/11 07:30:11;;;;;;;11.83;9.30;;;;;;;;;;5115137;27;20729;-70
2021/06/11 07:32:39;;;;;;;12.80;8.47;;;;;;;;;;5114667;27;20554;-70
2021/06/11 07:35:10;;;;;;;7.77;6.97;;;;;;;;;;5115352;27;20474;-70
2021/06/11 07:37:41;;;;;;;7.97;6.53;;;;;;;;;;5100704;28;20452;-69
2021/06/11 07:40:11;;;;;;;7.97;7.13;;;;;;;;;;5088265;28;20458;-70
2021/06/11 07:42:40;;;;;;;5.73;5.13;;;;;;;;;;5097902;28;20844;-71
2021/06/11 07:45:17;;;;;;;8.20;4.90;;;;;;;;;;5103509;27;20517;-69
2021/06/11 07:48:03;;;;;;;5.73;5.10;;;;;;;;;;5101676;27;20596;-70
2021/06/11 07:50:32;;;;;;;5.67;4.20;;;;;;;;;;5112536;27;20458;-71
2021/06/11 07:53:00;;;;;;;5.90;5.20;;;;;;;;;;5108012;27;20444;-70
2021/06/11 07:55:27;;;;;;;7.27;6.00;;;;;;;;;;5112879;27;20921;-70
2021/06/11 07:57:56;;;;;;;4.20;3.20;;;;;;;;;;5112523;27;20863;-70
2021/06/11 08:00:25;;;;;;;4.03;3.43;;;;;;;;;;5110803;27;20574;-71
2021/06/11 08:03:00;;;;;;;4.00;3.60;;;;;;;;;;5110506;28;20514;-72
2021/06/11 08:05:28;;;;;;;4.30;3.90;;;;;;;;;;5107315;27;20910;-71
2021/06/11 08:07:56;;;;;;;3.63;3.20;;;;;;;;;;5114441;27;20485;-70
2021/06/11 08:10:29;;;;;;;4.70;3.03;;;;;;;;;;5112652;27;20454;-71
2021/06/11 08:12:56;;;;;;;5.00;3.43;;;;;;;;;;5111486;27;20450;-71
2021/06/11 08:15:25;;;;;;;8.00;4.23;;;;;;;;;;5113376;27;20562;-71
2021/06/11 08:17:53;;;;;;;4.50;3.63;;;;;;;;;;5114110;27;20507;-71
2021/06/11 08:20:25;;;;;;;3.83;3.43;;;;;;;;;;5115382;27;20459;-71
2021/06/11 08:22:58;;;;;;;3.93;3.40;;;;;;;;;;5113640;27;20482;-71
2021/06/11 08:25:32;;;;;;;4.37;3.57;;;;;;;;;;5112243;27;20528;-71
2021/06/11 08:28:01;;;;;;;6.13;3.90;;;;;;;;;;5105324;27;20550;-71
2021/06/11 08:30:30;;;;;;;3.80;3.20;;;;;;;;;;5103617;28;20766;-70
2021/06/11 08:32:58;;;;;;;3.87;3.20;;;;;;;;;;5116019;27;21146;-70
2021/06/11 08:35:27;;;;;;;5.70;3.20;;;;;;;;;;5098202;27;20477;-70
2021/06/11 08:37:59;;;;;;;6.90;3.10;;;;;;;;;;5116014;27;20862;-70
2021/06/11 08:40:29;;;;;;;3.50;2.70;;;;;;;;;;5111898;27;20474;-71
2021/06/11 08:42:57;;;;;;;4.47;3.57;;;;;;;;;;5099042;28;20905;-70
2021/06/11 08:45:24;;;;;;;5.70;2.83;;;;;;;;;;5117553;27;20458;-71
2021/06/11 08:47:55;;;;;;;3.80;2.67;;;;;;;;;;5108559;28;20489;-71
2021/06/11 08:50:27;;;;;;;3.00;2.30;;;;;;;;;;5119608;27;20461;-70
2021/06/11 08:52:55;;;;;;;2.73;1.90;;;;;;;;;;5117624;27;20511;-69
2021/06/11 08:55:23;;;;;;;6.70;2.20;;;;;;;;;;5112630;27;20906;-69
2021/06/11 08:57:50;;;;;;;3.17;2.37;;;;;;;;;;5112490;27;21117;-70
2021/06/11 09:00:19;;;;;;;3.87;2.33;;;;;;;;;;5119127;27;20590;-71
2021/06/11 09:03:05;;;;;;;7.50;3.07;;;;;;;;;;5117193;27;20523;-71
2021/06/11 09:05:34;;;;;;;3.83;2.30;;;;;;;;;;5118237;27;20790;-71
2021/06/11 09:08:11;;;;;;;3.97;2.93;;;;;;;;;;5118107;27;21026;-71
2021/06/11 09:10:39;;;;;;;4.20;2.40;;;;;;;;;;5118247;27;20546;-71
2021/06/11 09:13:09;;;;;;;2.70;2.10;;;;;;;;;;5117465;27;20458;-71
2021/06/11 09:15:38;;;;;;;12.03;6.70;;;;;;;;;;5100408;27;20475;-71
2021/06/11 09:18:19;;;;;;;6.23;4.20;;;;;;;;;;5116160;27;20455;-72
2021/06/11 09:20:48;;;;;;;2.50;1.83;;;;;;;;;;5116184;27;20465;-71
2021/06/11 09:23:15;;;;;;;3.93;2.40;;;;;;;;;;5117655;27;20534;-71
2021/06/11 09:25:45;;;;;;;2.83;2.20;;;;;;;;;;5136180;27;21044;-71
2021/06/11 09:28:15;;;;;;;3.20;2.23;;;;;;;;;;5136811;27;20453;-71
2021/06/11 09:30:53;;;;;;;6.70;2.97;;;;;;;;;;5131056;27;20455;-71
2021/06/11 09:33:24;;;;;;;3.93;2.33;;;;;;;;;;5116289;27;20462;-70
2021/06/11 09:35:54;;;;;;;4.20;2.73;;;;;;;;;;5116141;27;20470;-70
2021/06/11 09:38:25;;;;;;;5.50;2.87;;;;;;;;;;5116427;27;21055;-70
2021/06/11 09:41:07;;;;;;;3.47;2.80;;;;;;;;;;5117121;27;20519;-70
2021/06/11 09:43:36;;;;;;;3.17;2.53;;;;;;;;;;5117908;27;20545;-70
2021/06/11 09:46:06;;;;;;;4.20;2.67;;;;;;;;;;5117308;27;20462;-70
2021/06/11 09:48:41;;;;;;;4.50;3.03;;;;;;;;;;5117201;27;20515;-70
2021/06/11 09:51:27;;;;;;;4.60;3.23;;;;;;;;;;5114683;27;20474;-70
2021/06/11 09:53:55;;;;;;;3.87;3.10;;;;;;;;;;5118243;27;20443;-70
2021/06/11 09:56:25;;;;;;;4.53;2.90;;;;;;;;;;5112926;27;20461;-70
2021/06/11 09:58:55;;;;;;;9.30;3.20;;;;;;;;;;5102423;27;20793;-70
2021/06/11 10:01:25;;;;;;;9.93;3.93;;;;;;;;;;5096546;28;20790;-70
2021/06/11 10:06:56;;;;;;;6.20;3.63;;;;;;;;;;5089410;28;20556;-70
2021/06/11 10:09:24;;;;;;;3.70;3.00;;;;;;;;;;5114516;27;20470;-70
2021/06/11 10:11:51;;;;;;;6.47;3.17;;;;;;;;;;5116425;27;20542;-70
2021/06/11 10:14:19;;;;;;;7.10;4.30;;;;;;;;;;5116080;27;20757;-72
2021/06/11 10:16:51;;;;;;;4.33;3.50;;;;;;;;;;5107558;27;20462;-71
2021/06/11 10:19:26;;;;;;;4.40;3.07;;;;;;;;;;5103202;28;20462;-71
2021/06/11 10:22:00;;;;;;;4.73;3.20;;;;;;;;;;5106597;27;20469;-71
2021/06/11 10:24:29;;;;;;;5.17;3.13;;;;;;;;;;5115669;27;20470;-72
2021/06/11 10:26:57;;;;;;;6.00;4.10;;;;;;;;;;5110951;27;20460;-71
2021/06/11 10:29:34;;;;;;;4.90;2.73;;;;;;;;;;5095801;27;20459;-71
2021/06/11 10:32:11;;;;;;;4.10;3.10;;;;;;;;;;5095407;28;20459;-71
2021/06/11 10:34:52;;;;;;;3.27;2.97;;;;;;;;;;5104824;27;20803;-72
2021/06/11 10:37:45;;;;;;;4.47;3.17;;;;;;;;;;5116198;27;20455;-72
2021/06/11 10:40:31;;;;;;;5.50;2.90;;;;;;;;;;5114969;27;20455;-73
2021/06/11 10:43:22;;;;;;;5.73;3.07;;;;;;;;;;5085485;28;20858;-72
2021/06/11 10:46:01;;;;;;;4.00;3.30;;;;;;;;;;5115282;27;20479;-72
2021/06/11 10:48:53;;;;;;;9.13;3.20;;;;;;;;;;5115273;27;20454;-71
2021/06/11 10:51:39;;;;;;;5.30;3.10;;;;;;;;;;5115498;27;20446;-72
2021/06/11 10:54:24;;;;;;;4.30;3.50;;;;;;;;;;5115245;27;20534;-71
2021/06/11 10:57:09;;;;;;;7.53;3.70;;;;;;;;;;5115880;27;20739;-72
2021/06/11 10:59:40;;;;;;;4.80;3.07;;;;;;;;;;5112583;27;20450;-72
2021/06/11 11:02:12;;;;;;;8.70;2.97;;;;;;;;;;5107661;27;20882;-73
2021/06/11 11:04:59;;;;;;;4.17;3.03;;;;;;;;;;5113115;27;20487;-72
2021/06/11 11:07:36;;;;;;;3.87;3.10;;;;;;;;;;5114439;27;20802;-72
2021/06/11 11:10:08;;;;;;;3.27;2.77;;;;;;;;;;5116741;27;21040;-73
2021/06/11 11:12:54;;;;;;;4.70;2.80;;;;;;;;;;5115244;27;20461;-71
2021/06/11 11:15:37;;;;;;;3.13;2.73;;;;;;;;;;5115671;27;21072;-72
2021/06/11 11:18:05;;;;;;;5.47;3.27;;;;;;;;;;5115783;27;20462;-72
2021/06/11 11:20:36;;;;;;;3.80;2.60;;;;;;;;;;5115182;27;20490;-71
2021/06/11 11:23:38;;;;;;;4.07;2.70;;;;;;;;;;5114309;27;20568;-71
2021/06/11 11:26:05;;;;;;;3.30;3.00;;;;;;;;;;5115094;27;20451;-71
2021/06/11 11:28:34;;;;;;;3.97;3.30;;;;;;;;;;5115089;27;20870;-72
2021/06/11 11:31:18;;;;;;;3.60;2.60;;;;;;;;;;5086535;27;20436;-72
2021/06/11 11:33:46;;;;;;;3.17;2.70;;;;;;;;;;5105791;27;20513;-72
2021/06/11 11:36:13;;;;;;;4.07;2.83;;;;;;;;;;5113139;27;20585;-72
2021/06/11 11:38:40;;;;;;;4.97;3.17;;;;;;;;;;5106753;27;20459;-70
2021/06/11 11:41:08;;;;;;;3.80;3.20;;;;;;;;;;5105798;28;20443;-70
2021/06/11 11:43:37;;;;;;;4.50;3.40;;;;;;;;;;5113947;27;20469;-70
2021/06/11 11:46:04;;;;;;;4.40;2.60;;;;;;;;;;5108900;27;20527;-71
2021/06/11 11:48:34;;;;;;;3.40;2.67;;;;;;;;;;5114694;27;20866;-70
2021/06/11 11:51:02;;;;;;;3.17;2.70;;;;;;;;;;5114731;27;20459;-71
2021/06/11 11:53:29;;;;;;;3.10;2.40;;;;;;;;;;5114979;27;20466;-72
2021/06/11 11:56:02;;;;;;;4.77;3.13;;;;;;;;;;5114361;27;20543;-71
2021/06/11 11:58:56;;;;;;;3.50;2.83;;;;;;;;;;5102008;28;20517;-71
2021/06/11 12:01:24;;;;;;;6.63;2.80;;;;;;;;;;5096755;28;20478;-71
2021/06/11 12:03:53;;;;;;;3.87;2.53;;;;;;;;;;5112934;27;20521;-70
2021/06/11 12:06:36;;;;;;;6.83;3.70;;;;;;;;;;5100038;28;20459;-71
2021/06/11 12:09:05;;;;;;;5.57;2.93;;;;;;;;;;5108547;27;20766;-71
2021/06/11 12:11:51;;;;;;;5.63;2.77;;;;;;;;;;5105061;27;20469;-71
2021/06/11 12:14:34;;;;;;;3.13;2.70;;;;;;;;;;5098299;28;21096;-71
2021/06/11 12:17:08;;;;;;;4.93;2.70;;;;;;;;;;5098415;28;20471;-72
2021/06/11 12:19:37;;;;;;;3.83;3.07;;;;;;;;;;5110852;28;20589;-71
2021/06/11 12:22:07;;;;;;;3.33;2.23;;;;;;;;;;5108538;27;20459;-72
2021/06/11 12:24:37;;;;;;;3.30;2.00;;;;;;;;;;5117475;27;20472;-72
2021/06/11 12:27:05;;;;;;;3.43;2.47;;;;;;;;;;5119123;27;20545;-73
2021/06/11 12:29:33;;;;;;;3.80;2.90;;;;;;;;;;5104470;27;20458;-72
2021/06/11 12:32:02;;;;;;;2.97;2.30;;;;;;;;;;5113306;27;20555;-72
2021/06/11 12:34:32;;;;;;;5.03;2.60;;;;;;;;;;5104087;28;20458;-72
2021/06/11 12:37:19;;;;;;;3.00;2.70;;;;;;;;;;5119421;27;20870;-74
2021/06/11 12:39:50;;;;;;;3.47;2.67;;;;;;;;;;5110433;27;21114;-72
2021/06/11 12:42:25;;;;;;;3.53;2.60;;;;;;;;;;5109912;27;20616;-72
2021/06/11 12:44:56;;;;;;;3.87;2.57;;;;;;;;;;5106108;27;20446;-72
2021/06/11 12:47:34;;;;;;;8.60;2.90;;;;;;;;;;5109910;28;20444;-71
2021/06/11 12:50:04;;;;;;;3.33;1.97;;;;;;;;;;5102169;28;20443;-73
2021/06/11 12:52:32;;;;;;;4.73;2.80;;;;;;;;;;5116915;27;20451;-73
2021/06/11 12:55:05;;;;;;;2.53;2.33;;;;;;;;;;5109557;27;20577;-72
2021/06/11 12:57:36;;;;;;;4.30;2.60;;;;;;;;;;5111476;27;20546;-73
2021/06/11 13:00:08;;;;;;;2.87;2.00;;;;;;;;;;5114585;27;20885;-73
2021/06/11 13:02:35;;;;;;;2.80;2.40;;;;;;;;;;5107758;27;20459;-72
2021/06/11 13:05:03;;;;;;;3.53;2.20;;;;;;;;;;5109420;27;20486;-71
2021/06/11 13:07:31;;;;;;;4.80;2.40;;;;;;;;;;5110442;27;20531;-73
2021/06/11 13:10:00;;;;;;;3.03;2.27;;;;;;;;;;5114233;27;20443;-73
2021/06/11 13:12:27;;;;;;;3.07;2.77;;;;;;;;;;5116393;27;20850;-73
2021/06/11 13:14:55;;;;;;;2.60;1.90;;;;;;;;;;5116989;27;20905;-72
2021/06/11 13:17:23;;;;;;;3.30;2.33;;;;;;;;;;5107308;27;20930;-71
2021/06/11 13:19:57;;;;;;;3.07;2.77;;;;;;;;;;5117068;27;20804;-74
2021/06/11 13:22:27;;;;;;;4.70;2.00;;;;;;;;;;5116026;27;20462;-72
2021/06/11 13:24:54;;;;;;;5.00;2.53;;;;;;;;;;5116238;27;20463;-71
2021/06/11 13:27:23;;;;;;;3.70;1.93;;;;;;;;;;5117382;27;20836;-74
2021/06/11 13:29:52;;;;;;;5.20;2.30;;;;;;;;;;5117704;27;20446;-73
2021/06/11 13:32:19;;;;;;;2.50;1.90;;;;;;;;;;5119083;27;20459;-72
2021/06/11 13:34:46;;;;;;;4.57;1.87;;;;;;;;;;5117767;27;21134;-73
2021/06/11 13:37:14;;;;;;;3.13;2.10;;;;;;;;;;5118008;27;20520;-73
2021/06/11 13:39:41;;;;;;;2.27;1.77;;;;;;;;;;5117346;27;20555;-73
2021/06/11 13:42:09;;;;;;;2.33;1.90;;;;;;;;;;5114851;27;20461;-72
2021/06/11 13:44:37;;;;;;;2.80;2.03;;;;;;;;;;5116462;27;20463;-71
2021/06/11 13:47:10;;;;;;;4.00;3.33;;;;;;;;;;5115773;27;20455;-71
2021/06/11 13:49:37;;;;;;;4.33;2.20;;;;;;;;;;5116310;27;20459;-71
2021/06/11 13:52:05;;;;;;;3.97;1.83;;;;;;;;;;5117363;27;20463;-71
2021/06/11 13:54:40;;;;;;;3.70;2.20;;;;;;;;;;5116618;27;20485;-72
2021/06/11 13:57:08;;;;;;;3.00;2.40;;;;;;;;;;5102739;28;20458;-72
2021/06/11 13:59:37;;;;;;;6.23;1.70;;;;;;;;;;5110689;27;20458;-72
2021/06/11 14:02:08;;;;;;;5.37;1.67;;;;;;;;;;5117112;27;20868;-72
2021/06/11 14:04:39;;;;;;;3.23;2.20;;;;;;;;;;5114581;27;20467;-72
2021/06/11 14:07:07;;;;;;;3.60;1.90;;;;;;;;;;5116083;27;20455;-72
2021/06/11 14:09:35;;;;;;;2.83;1.87;;;;;;;;;;5120034;27;20456;-71
2021/06/11 14:12:07;;;;;;;3.43;2.13;;;;;;;;;;5113293;27;20451;-71
2021/06/11 14:14:34;;;;;;;3.67;2.47;;;;;;;;;;5097157;28;20595;-70
2021/06/11 14:17:04;;;;;;;3.47;2.20;;;;;;;;;;5096590;28;20470;-70
2021/06/11 14:19:33;;;;;;;2.50;1.90;;;;;;;;;;5097956;27;20507;-70
2021/06/11 14:22:01;;;;;;;2.80;2.20;;;;;;;;;;5096461;28;20778;-70
2021/06/11 14:24:31;;;;;;;4.70;3.50;;;;;;;;;;5095423;28;20448;-71
2021/06/11 14:26:58;;;;;;;2.57;1.87;;;;;;;;;;5095191;28;20546;-70
2021/06/11 14:29:25;;;;;;;3.53;1.70;;;;;;;;;;5096640;28;20463;-70
2021/06/11 14:31:53;;;;;;;3.63;2.10;;;;;;;;;;5115477;27;20454;-70
2021/06/11 14:34:20;;;;;;;2.47;1.50;;;;;;;;;;5117064;27;20916;-71
2021/06/11 14:37:03;;;;;;;4.23;2.43;;;;;;;;;;5114858;27;20890;-70
2021/06/11 14:39:31;;;;;;;3.03;1.93;;;;;;;;;;5113014;27;20631;-71
2021/06/11 14:41:59;;;;;;;4.00;2.00;;;;;;;;;;5124771;27;20464;-71
2021/06/11 14:44:29;;;;;;;3.07;1.93;;;;;;;;;;5097016;27;20462;-71
2021/06/11 14:47:00;;;;;;;2.83;2.03;;;;;;;;;;5113646;27;20672;-72
2021/06/11 14:49:27;;;;;;;2.67;1.80;;;;;;;;;;5114247;27;20509;-72
2021/06/11 14:51:58;;;;;;;2.73;1.73;;;;;;;;;;5112528;27;20497;-72
2021/06/11 14:54:31;;;;;;;3.13;1.90;;;;;;;;;;5094378;28;20533;-72
2021/06/11 14:57:01;;;;;;;2.43;1.83;;;;;;;;;;5109645;27;20456;-72
2021/06/11 14:59:28;;;;;;;3.00;2.43;;;;;;;;;;5110595;27;20455;-71
2021/06/11 15:02:01;;;;;;;2.90;2.00;;;;;;;;;;5112896;27;20458;-71